Time;durP1;ratioP1;P1;durP2;ratioP2;P2;SDS_P1;SDS_P2;PMS_P1;PMS_P2;Temp;Humidity;BMP_temperature;BMP_pressure;BME280_temperature;BME280_humidity;BME280_pressure;Samples;Min_cycle;Max_cycle;Signal;HPM_P1;HPM_P2
2023/04/22 00:01:20;;;;;;;25.58;17.23;;;;;;;6.18;100.00;100774.81;5059433;28;20108;-76
2023/04/22 00:03:45;;;;;;;24.23;17.23;;;;;;;6.17;100.00;100772.22;5056406;28;20080;-76
2023/04/22 00:06:10;;;;;;;24.92;17.30;;;;;;;6.13;100.00;100766.19;5056227;28;20502;-75
2023/04/22 00:08:36;;;;;;;23.50;17.27;;;;;;;6.16;100.00;100768.75;5054447;28;20075;-75
2023/04/22 00:11:02;;;;;;;22.70;16.98;;;;;;;6.12;100.00;100777.44;5063414;28;20074;-76
2023/04/22 00:13:28;;;;;;;23.17;15.93;;;;;;;6.03;100.00;100762.81;5065941;28;20040;-76
2023/04/22 00:15:53;;;;;;;23.65;17.73;;;;;;;6.10;100.00;100767.06;5068682;28;20094;-76
2023/04/22 00:18:18;;;;;;;22.70;16.60;;;;;;;6.11;100.00;100778.28;5061843;28;20099;-75
2023/04/22 00:20:44;;;;;;;25.48;18.30;;;;;;;6.07;100.00;100767.09;5069939;28;20442;-76
2023/04/22 00:23:10;;;;;;;24.60;18.02;;;;;;;6.04;100.00;100761.94;5069180;28;20130;-76
2023/04/22 00:25:35;;;;;;;23.38;17.20;;;;;;;6.04;100.00;100771.41;5058568;28;20485;-75
2023/04/22 00:28:01;;;;;;;24.35;17.33;;;;;;;6.01;100.00;100759.34;5063293;28;20031;-75
2023/04/22 00:30:26;;;;;;;23.10;17.30;;;;;;;6.06;100.00;100773.13;5069258;28;20096;-75
2023/04/22 00:32:52;;;;;;;26.23;18.73;;;;;;;6.09;100.00;100769.69;5060220;28;20479;-76
2023/04/22 00:35:17;;;;;;;23.52;17.45;;;;;;;6.05;100.00;100771.44;5054617;28;20033;-76
2023/04/22 00:37:43;;;;;;;22.98;17.73;;;;;;;6.10;100.00;100779.16;5061215;28;20025;-75
2023/04/22 00:40:08;;;;;;;23.55;17.30;;;;;;;6.13;100.00;100766.19;5067391;28;20028;-75
2023/04/22 00:42:36;;;;;;;24.42;17.20;;;;;;;6.15;100.00;100761.88;5063549;28;20421;-76
2023/04/22 00:45:03;;;;;;;26.15;17.85;;;;;;;6.19;100.00;100767.91;5056210;28;20098;-75
2023/04/22 00:47:30;;;;;;;24.60;17.77;;;;;;;6.22;100.00;100763.56;5071877;28;20017;-75
2023/04/22 00:49:57;;;;;;;21.38;16.35;;;;;;;6.25;100.00;100771.31;5063469;28;20028;-75
2023/04/22 00:52:23;;;;;;;22.10;17.45;;;;;;;6.29;100.00;100779.91;5055880;28;20025;-75
2023/04/22 00:54:48;;;;;;;23.52;17.08;;;;;;;6.32;100.00;100775.56;5067787;28;20024;-76
2023/04/22 00:57:14;;;;;;;21.98;17.13;;;;;;;6.36;100.00;100783.31;5061131;28;20468;-75
2023/04/22 00:59:39;;;;;;;23.23;16.77;;;;;;;6.37;100.00;100774.66;5062261;28;20395;-75
2023/04/22 01:02:05;;;;;;;21.17;16.27;;;;;;;6.35;100.00;100771.25;5062815;28;20452;-75
2023/04/22 01:04:31;;;;;;;21.52;15.88;;;;;;;6.31;100.00;100770.38;5064888;28;20036;-75
2023/04/22 01:06:56;;;;;;;19.90;15.80;;;;;;;6.37;100.00;100778.09;5064562;28;20075;-75
2023/04/22 01:09:21;;;;;;;24.42;16.08;;;;;;;6.43;100.00;100772.03;5056067;28;20469;-75
2023/04/22 01:11:47;;;;;;;20.35;15.55;;;;;;;6.45;100.00;100773.75;5059847;28;20059;-75
2023/04/22 01:14:12;;;;;;;21.35;15.77;;;;;;;6.49;100.00;100765.06;5058796;28;20029;-76
2023/04/22 01:16:39;;;;;;;20.48;16.13;;;;;;;6.55;100.00;100774.53;5066559;28;20115;-75
2023/04/22 01:19:05;;;;;;;20.42;16.08;;;;;;;6.55;100.00;100764.16;5072383;28;20024;-75
2023/04/22 01:21:33;;;;;;;20.60;15.63;;;;;;;6.64;100.00;100761.50;5072641;28;20086;-75
2023/04/22 01:24:00;;;;;;;21.63;15.60;;;;;;;6.67;100.00;100763.19;5070415;28;20020;-76
2023/04/22 01:26:25;;;;;;;20.40;15.80;;;;;;;6.69;100.00;100762.31;5068494;28;20040;-75
2023/04/22 01:28:52;;;;;;;20.80;16.35;;;;;;;6.66;100.00;100759.75;5066549;28;20036;-75
2023/04/22 01:31:18;;;;;;;20.38;15.45;;;;;;;6.71;100.00;100770.94;5055862;28;20029;-75
2023/04/22 01:33:44;;;;;;;19.70;15.38;;;;;;;6.73;100.00;100758.81;5049839;28;20033;-76
2023/04/22 01:36:10;;;;;;;20.95;15.15;;;;;;;6.72;100.00;100754.50;5041671;28;20028;-75
2023/04/22 01:38:36;;;;;;;18.80;14.65;;;;;;;6.70;100.00;100763.16;5056351;28;20016;-75
2023/04/22 01:41:01;;;;;;;22.27;14.90;;;;;;;6.70;100.00;100758.88;5054882;28;20029;-75
2023/04/22 01:43:29;;;;;;;18.70;14.45;;;;;;;6.68;100.00;100758.00;5064690;28;20040;-75
2023/04/22 01:45:55;;;;;;;18.70;14.98;;;;;;;6.64;100.00;100755.44;5059781;28;20418;-75
2023/04/22 01:48:20;;;;;;;19.42;15.00;;;;;;;6.57;100.00;100752.03;5058131;28;20033;-76
2023/04/22 01:50:46;;;;;;;18.08;14.75;;;;;;;6.64;100.00;100758.91;5072236;28;20533;-75
2023/04/22 01:53:11;;;;;;;18.23;14.57;;;;;;;6.65;100.00;100760.63;5065841;28;20033;-76
2023/04/22 01:55:37;;;;;;;20.17;15.23;;;;;;;6.63;100.00;100748.56;5061884;28;20025;-75
2023/04/22 01:58:03;;;;;;;20.33;15.10;;;;;;;6.64;100.00;100753.75;5052969;28;20031;-75
2023/04/22 02:00:29;;;;;;;19.75;14.73;;;;;;;6.61;100.00;100752.91;5056839;28;20392;-75
2023/04/22 02:02:54;;;;;;;21.83;15.63;;;;;;;6.61;100.00;100746.00;5063052;28;20040;-75
2023/04/22 02:05:20;;;;;;;21.25;15.45;;;;;;;6.63;100.00;100753.72;5052861;28;21937;-75
2023/04/22 02:07:45;;;;;;;20.88;15.40;;;;;;;6.54;100.00;100752.97;5057774;28;20036;-75
2023/04/22 02:10:11;;;;;;;20.90;15.45;;;;;;;6.58;100.00;100751.19;5062206;28;20017;-75
2023/04/22 02:12:36;;;;;;;20.95;16.08;;;;;;;6.64;100.00;100758.03;5051731;28;20404;-75
2023/04/22 02:15:02;;;;;;;19.75;15.63;;;;;;;6.60;100.00;100752.03;5058578;28;20028;-75
2023/04/22 02:17:27;;;;;;;21.25;15.73;;;;;;;6.56;100.00;100740.84;5055135;28;20040;-75
2023/04/22 02:19:53;;;;;;;19.65;15.88;;;;;;;6.59;100.00;100757.22;5062896;28;20472;-75
2023/04/22 02:22:19;;;;;;;21.65;16.52;;;;;;;6.50;100.00;100746.06;5072734;28;20460;-75
2023/04/22 02:24:45;;;;;;;22.23;16.15;;;;;;;6.52;100.00;100743.47;5059238;28;20033;-75
2023/04/22 02:27:10;;;;;;;21.20;16.23;;;;;;;6.54;100.00;100742.59;5072672;28;20085;-75
2023/04/22 02:29:35;;;;;;;21.38;16.38;;;;;;;6.55;100.00;100746.03;5060216;28;20032;-75
2023/04/22 02:32:01;;;;;;;22.35;16.00;;;;;;;6.57;100.00;100736.50;5061573;28;20032;-75
2023/04/22 02:34:26;;;;;;;22.60;16.83;;;;;;;6.56;100.00;100737.38;5061388;28;20020;-75
2023/04/22 02:36:51;;;;;;;24.20;17.00;;;;;;;6.57;100.00;100741.69;5057024;28;20482;-75
2023/04/22 02:39:16;;;;;;;20.48;16.05;;;;;;;6.53;100.00;100732.22;5058746;28;20084;-75
2023/04/22 02:41:42;;;;;;;21.85;16.60;;;;;;;6.49;100.00;100738.31;5061224;28;20033;-75
2023/04/22 02:44:07;;;;;;;20.90;16.48;;;;;;;6.45;100.00;100734.03;5066299;28;20032;-75
2023/04/22 02:46:33;;;;;;;23.23;17.77;;;;;;;6.39;100.00;100726.31;5058598;28;20021;-75
2023/04/22 02:48:58;;;;;;;23.25;17.50;;;;;;;6.39;100.00;100731.50;5057105;28;20107;-75
2023/04/22 02:51:23;;;;;;;22.75;17.08;;;;;;;6.39;100.00;100726.31;5056659;28;20020;-75
2023/04/22 02:53:48;;;;;;;23.10;17.92;;;;;;;6.37;100.00;100730.63;5068428;28;21551;-75
2023/04/22 02:56:14;;;;;;;24.00;18.38;;;;;;;6.33;100.00;100722.91;5064836;28;20028;-75
2023/04/22 02:58:39;;;;;;;23.75;17.88;;;;;;;6.32;100.00;100723.78;5074066;28;20495;-75
2023/04/22 03:01:04;;;;;;;22.20;17.30;;;;;;;6.31;100.00;100726.34;5070937;28;20372;-75
2023/04/22 03:03:30;;;;;;;24.85;18.00;;;;;;;6.30;100.00;100733.28;5055980;28;20029;-75
2023/04/22 03:05:56;;;;;;;26.48;19.27;;;;;;;6.32;100.00;100736.72;5059136;28;20027;-75
2023/04/22 03:08:21;;;;;;;25.23;18.13;;;;;;;6.28;100.00;100729.84;5066806;28;20024;-75
2023/04/22 03:10:47;;;;;;;24.95;19.33;;;;;;;6.32;100.00;100726.38;5073024;28;20028;-75
2023/04/22 03:13:13;;;;;;;26.20;19.10;;;;;;;6.29;100.00;100716.03;5064107;28;20483;-75
2023/04/22 03:15:41;;;;;;;26.10;19.08;;;;;;;6.25;100.00;100718.66;5057646;28;20017;-75
2023/04/22 03:18:07;;;;;;;25.75;19.77;;;;;;;6.25;100.00;100722.13;5058787;28;20021;-75
2023/04/22 03:20:33;;;;;;;26.40;20.05;;;;;;;6.23;100.00;100716.06;5061826;28;20438;-75
2023/04/22 03:22:59;;;;;;;27.58;19.70;;;;;;;6.24;100.00;100707.44;5053015;28;20427;-75
2023/04/22 03:25:24;;;;;;;28.83;20.33;;;;;;;6.26;100.00;100713.47;5064804;28;20035;-75
2023/04/22 03:27:50;;;;;;;25.05;19.85;;;;;;;6.24;100.00;100702.25;5070129;28;20112;-75
2023/04/22 03:30:15;;;;;;;27.88;20.35;;;;;;;6.23;100.00;100697.94;5071472;28;20025;-75
2023/04/22 03:32:40;;;;;;;29.63;21.20;;;;;;;6.23;100.00;100692.78;5064283;28;20383;-75
2023/04/22 03:35:06;;;;;;;26.25;20.23;;;;;;;6.24;100.00;100702.25;5058768;28;20070;-75
2023/04/22 03:37:31;;;;;;;26.55;20.42;;;;;;;6.23;100.00;100691.91;5070419;28;20384;-75
2023/04/22 03:39:56;;;;;;;27.50;20.38;;;;;;;6.21;100.00;100691.94;5067808;28;20385;-75
2023/04/22 03:42:22;;;;;;;27.80;20.45;;;;;;;6.24;100.00;100683.28;5060607;28;20048;-75
2023/04/22 03:44:47;;;;;;;27.98;20.83;;;;;;;6.25;100.00;100688.47;5062761;28;20033;-74
2023/04/22 03:47:13;;;;;;;28.27;21.17;;;;;;;6.25;100.00;100683.28;5061835;28;20029;-75
2023/04/22 03:49:38;;;;;;;27.60;21.73;;;;;;;6.27;100.00;100671.16;5062722;28;20036;-75
2023/04/22 03:52:03;;;;;;;29.58;21.95;;;;;;;6.25;100.00;100675.50;5068125;28;20036;-75
2023/04/22 03:54:28;;;;;;;30.48;22.00;;;;;;;6.21;100.00;100676.41;5059108;28;20052;-75
2023/04/22 03:56:54;;;;;;;31.48;23.33;;;;;;;6.18;100.00;100676.44;5059270;28;20021;-75
2023/04/22 03:59:19;;;;;;;32.03;23.33;;;;;;;6.16;100.00;100670.41;5056230;28;20035;-76
2023/04/22 04:01:46;;;;;;;32.42;22.67;;;;;;;6.14;100.00;100677.31;5061782;28;20112;-75
2023/04/22 04:04:11;;;;;;;32.72;23.83;;;;;;;6.14;100.00;100668.69;5066581;28;20031;-75
2023/04/22 04:06:37;;;;;;;32.47;24.10;;;;;;;6.18;100.00;100663.50;5060922;28;20029;-75
2023/04/22 04:09:02;;;;;;;33.08;25.00;;;;;;;6.21;100.00;100658.28;5067247;28;20083;-75
2023/04/22 04:13:59;;;;;;;33.78;25.02;;;;;;;6.26;100.00;100659.09;5093517;27;1216947;-75
2023/04/22 04:16:24;;;;;;;33.65;24.15;;;;;;;6.24;100.00;100667.75;5108832;27;20031;-75
2023/04/22 04:18:50;;;;;;;35.33;25.40;;;;;;;6.23;100.00;100653.09;5118763;28;20081;-75
2023/04/22 04:21:16;;;;;;;38.45;26.42;;;;;;;6.29;100.00;100653.91;5121896;28;20034;-75
2023/04/22 04:23:41;;;;;;;36.03;25.60;;;;;;;6.29;100.00;100655.63;5124617;27;20114;-75
2023/04/22 04:26:07;;;;;;;36.25;25.55;;;;;;;6.28;100.00;100661.69;5108649;28;20031;-75
2023/04/22 04:28:33;;;;;;;35.53;26.30;;;;;;;6.27;100.00;100665.97;5128784;27;20024;-75
2023/04/22 04:30:59;;;;;;;34.20;25.98;;;;;;;6.21;100.00;100647.94;5109715;28;20031;-76
2023/04/22 04:33:24;;;;;;;33.30;24.73;;;;;;;6.25;100.00;100659.97;5127121;28;20027;-75
2023/04/22 04:35:50;;;;;;;34.85;25.48;;;;;;;6.25;100.00;100662.56;5115952;28;20046;-75
2023/04/22 04:38:15;;;;;;;33.72;25.33;;;;;;;6.22;100.00;100662.59;5128323;27;20362;-75
2023/04/22 04:40:42;;;;;;;33.42;24.33;;;;;;;6.24;100.00;100655.66;5104009;27;20099;-75
2023/04/22 04:43:07;;;;;;;34.50;25.30;;;;;;;6.22;100.00;100653.97;5116681;28;20404;-75
2023/04/22 04:45:35;;;;;;;34.30;24.35;;;;;;;6.23;100.00;100664.28;5110915;27;20022;-75
2023/04/22 04:48:06;;;;;;;34.03;24.88;;;;;;;6.25;100.00;100661.72;5116802;27;20024;-75
2023/04/22 04:50:31;;;;;;;37.95;25.92;;;;;;;6.22;100.00;100662.59;5112808;28;20019;-75
2023/04/22 04:52:57;;;;;;;36.78;26.75;;;;;;;6.26;100.00;100663.41;5117827;27;20576;-75
2023/04/22 04:55:22;;;;;;;36.33;26.33;;;;;;;6.31;100.00;100657.34;5123489;28;20048;-75
2023/04/22 04:57:50;;;;;;;33.15;24.95;;;;;;;6.37;100.00;100669.34;5112576;27;20062;-75
2023/04/22 05:00:16;;;;;;;37.90;25.45;;;;;;;6.35;100.00;100662.50;5122520;28;20042;-75
2023/04/22 05:02:41;;;;;;;35.00;25.58;;;;;;;6.41;100.00;100672.75;5124958;27;20015;-75
2023/04/22 05:05:07;;;;;;;34.92;26.10;;;;;;;6.46;100.00;100665.81;5118039;27;20085;-75
2023/04/22 05:07:32;;;;;;;35.58;26.02;;;;;;;6.49;100.00;100668.41;5127411;28;20386;-75
2023/04/22 05:09:59;;;;;;;37.72;26.42;;;;;;;6.51;100.00;100664.91;5112651;28;20114;-75
2023/04/22 05:12:24;;;;;;;39.25;26.48;;;;;;;6.54;100.00;100659.72;5128697;27;20059;-75
2023/04/22 05:14:50;;;;;;;34.90;25.30;;;;;;;6.59;100.00;100651.03;5121901;27;20035;-75
2023/04/22 05:17:15;;;;;;;33.42;25.75;;;;;;;6.63;100.00;100648.38;5107171;27;20024;-75
2023/04/22 05:19:40;;;;;;;33.92;24.65;;;;;;;6.62;100.00;100646.69;5113362;28;20488;-75
2023/04/22 05:22:06;;;;;;;35.92;25.60;;;;;;;6.64;100.00;100646.66;5113998;28;20031;-75
2023/04/22 05:24:32;;;;;;;34.38;25.55;;;;;;;6.63;100.00;100655.28;5109694;27;20053;-75
2023/04/22 05:26:57;;;;;;;39.72;27.70;;;;;;;6.68;100.00;100662.16;5108103;28;20050;-75
2023/04/22 05:29:22;;;;;;;36.25;25.30;;;;;;;6.75;100.00;100661.22;5102903;28;20106;-75
2023/04/22 05:31:48;;;;;;;37.85;26.92;;;;;;;6.84;100.00;100656.81;5096368;28;20111;-75
2023/04/22 05:34:13;;;;;;;38.80;26.75;;;;;;;6.92;100.00;100650.66;5099107;28;20088;-75
2023/04/22 05:36:38;;;;;;;35.70;25.60;;;;;;;6.97;100.00;100648.03;5107004;28;20031;-75
2023/04/22 05:39:07;;;;;;;40.53;27.85;;;;;;;7.02;100.00;100647.06;5107823;28;20178;-75
2023/04/22 05:41:32;;;;;;;41.90;28.02;;;;;;;7.10;100.00;100649.59;5108704;28;20042;-75
2023/04/22 05:44:03;;;;;;;40.05;27.67;;;;;;;7.15;100.00;100650.38;5108382;28;20489;-75
2023/04/22 05:46:28;;;;;;;41.40;28.92;;;;;;;7.19;100.00;100643.41;5095211;28;20039;-75
2023/04/22 05:48:54;;;;;;;42.38;29.50;;;;;;;7.27;100.00;100646.78;5101524;28;20119;-75
2023/04/22 05:51:21;;;;;;;40.95;28.75;;;;;;;7.32;100.00;100654.50;5105089;28;20024;-75
2023/04/22 05:53:46;;;;;;;39.85;28.92;;;;;;;7.33;100.00;100648.44;5093059;28;20046;-75
2023/04/22 05:56:11;;;;;;;41.83;29.33;;;;;;;7.37;100.00;100650.97;5099296;28;20027;-75
2023/04/22 05:58:42;;;;;;;37.08;29.20;;;;;;;7.43;100.00;100647.44;5104185;28;20474;-75
2023/04/22 06:01:08;;;;;;;40.83;29.92;;;;;;;7.52;100.00;100642.13;5100915;28;20020;-75
2023/04/22 06:03:33;;;;;;;39.05;29.95;;;;;;;7.58;100.00;100647.22;5107050;28;20119;-75
2023/04/22 06:05:59;;;;;;;41.63;30.45;;;;;;;7.71;100.00;100646.16;5098916;28;20073;-75
2023/04/22 06:08:24;;;;;;;44.83;32.42;;;;;;;7.79;100.00;100642.59;5104975;28;20479;-75
2023/04/22 06:10:49;;;;;;;45.28;31.77;;;;;;;7.84;100.00;100640.78;5095087;28;20482;-75
2023/04/22 06:13:15;;;;;;;42.60;31.20;;;;;;;7.85;100.00;100650.31;5101598;28;20044;-75
2023/04/22 06:15:40;;;;;;;42.20;29.55;;;;;;;7.88;100.00;100651.13;5098858;28;20036;-75
2023/04/22 06:18:05;;;;;;;41.47;29.42;;;;;;;7.91;100.00;100651.06;5102279;27;20504;-75
2023/04/22 06:20:34;;;;;;;37.95;30.10;;;;;;;8.01;100.00;100648.31;5101190;28;20438;-75
2023/04/22 06:23:00;;;;;;;39.10;29.23;;;;;;;8.08;100.00;100626.56;5083503;28;20024;-76
2023/04/22 06:25:25;;;;;;;34.53;26.80;;;;;;;8.18;100.00;100628.97;5104148;28;20031;-75
2023/04/22 06:27:51;;;;;;;33.72;27.27;;;;;;;8.32;100.00;100628.75;5114435;28;20096;-75
2023/04/22 06:30:16;;;;;;;34.38;27.33;;;;;;;8.45;100.00;100632.00;5094585;28;20067;-75
2023/04/22 06:32:41;;;;;;;34.08;26.45;;;;;;;8.58;100.00;100628.31;5104058;28;20186;-75
2023/04/22 06:35:07;;;;;;;35.20;27.55;;;;;;;8.77;100.00;100635.75;5097342;28;20039;-75
2023/04/22 06:37:32;;;;;;;32.35;26.20;;;;;;;8.88;100.00;100637.25;5101594;28;20042;-75
2023/04/22 06:40:00;;;;;;;36.35;27.83;;;;;;;8.99;100.00;100633.56;5102680;28;20036;-75
2023/04/22 06:42:26;;;;;;;34.45;27.58;;;;;;;9.07;100.00;100614.34;5098519;28;20035;-75
2023/04/22 06:44:51;;;;;;;29.77;23.80;;;;;;;9.13;100.00;100614.22;5105108;28;20466;-75
2023/04/22 06:47:19;;;;;;;32.45;24.10;;;;;;;9.13;100.00;100609.00;5100596;28;20077;-75
2023/04/22 06:49:45;;;;;;;29.98;23.48;;;;;;;9.13;100.00;100605.56;5101164;28;20016;-75
2023/04/22 06:52:10;;;;;;;30.45;23.08;;;;;;;9.14;100.00;100607.25;5102004;28;20024;-75
2023/04/22 06:54:37;;;;;;;27.17;21.48;;;;;;;9.10;100.00;100613.41;5090806;28;20107;-75
2023/04/22 06:57:02;;;;;;;28.52;22.73;;;;;;;9.27;100.00;100618.25;5104528;28;20023;-75
2023/04/22 06:59:28;;;;;;;28.63;23.23;;;;;;;9.45;100.00;100617.88;5110041;28;20032;-75
2023/04/22 07:01:53;;;;;;;28.83;22.42;;;;;;;9.62;100.00;100612.28;5106627;28;20486;-75
2023/04/22 07:04:18;;;;;;;29.65;22.02;;;;;;;9.91;100.00;100610.72;5100702;28;20047;-75
2023/04/22 07:06:44;;;;;;;27.75;20.65;;;;;;;10.15;100.00;100610.13;5096786;28;20046;-76
2023/04/22 07:09:09;;;;;;;29.20;21.00;;;;;;;10.42;100.00;100605.09;5107756;28;20489;-75
2023/04/22 07:11:35;;;;;;;23.17;18.38;;;;;;;10.65;100.00;100605.34;5095699;28;20057;-75
2023/04/22 07:14:00;;;;;;;21.80;18.17;;;;;;;10.80;100.00;100608.44;5092575;28;20506;-75
2023/04/22 07:16:26;;;;;;;21.60;16.60;;;;;;;10.77;100.00;100612.81;5104135;28;20023;-77
2023/04/22 07:18:51;;;;;;;22.05;16.38;;;;;;;10.70;100.00;100607.84;5113531;28;20051;-76
2023/04/22 07:21:17;;;;;;;19.88;16.30;;;;;;;10.64;100.00;100608.00;5094875;28;20475;-76
2023/04/22 07:23:42;;;;;;;20.92;15.65;;;;;;;10.57;100.00;100617.75;5098978;28;20039;-76
2023/04/22 07:26:07;;;;;;;21.27;16.45;;;;;;;10.51;100.00;100610.94;5105654;28;20023;-76
2023/04/22 07:28:33;;;;;;;20.83;16.73;;;;;;;10.45;100.00;100613.69;5112555;27;20027;-76
2023/04/22 07:30:58;;;;;;;21.08;16.23;;;;;;;10.34;100.00;100615.75;5091105;28;20479;-76
2023/04/22 07:33:23;;;;;;;20.35;16.23;;;;;;;10.29;100.00;100617.59;5089765;28;20047;-76
2023/04/22 07:35:49;;;;;;;22.67;16.80;;;;;;;10.28;100.00;100602.88;5112231;28;20024;-76
2023/04/22 07:38:14;;;;;;;22.17;18.50;;;;;;;10.42;100.00;100605.09;5113480;28;20035;-76
2023/04/22 07:40:39;;;;;;;23.58;18.80;;;;;;;10.51;100.00;100610.94;5111132;28;20016;-76
2023/04/22 07:43:05;;;;;;;21.45;17.77;;;;;;;10.61;100.00;100610.69;5113280;28;20023;-76
2023/04/22 07:45:31;;;;;;;26.92;17.83;;;;;;;10.66;100.00;100627.03;5109368;28;20061;-76
2023/04/22 07:47:56;;;;;;;23.08;17.77;;;;;;;10.63;100.00;100614.97;5107347;28;20031;-76
2023/04/22 07:50:22;;;;;;;24.30;17.05;;;;;;;10.57;100.00;100606.47;5112218;28;20410;-76
2023/04/22 07:52:47;;;;;;;21.13;16.75;;;;;;;10.60;100.00;100593.34;5113021;28;20020;-76
2023/04/22 07:55:12;;;;;;;21.88;17.58;;;;;;;10.73;100.00;100595.56;5108398;28;20095;-76
2023/04/22 07:57:38;;;;;;;23.23;17.75;;;;;;;10.91;100.00;100591.56;5089832;28;20024;-76
2023/04/22 08:00:09;;;;;;;23.45;17.80;;;;;;;11.07;100.00;100591.13;5103392;28;20103;-76
2023/04/22 08:02:34;;;;;;;19.75;15.88;;;;;;;11.14;100.00;100583.06;5110214;28;20118;-76
2023/04/22 08:05:00;;;;;;;20.95;15.77;;;;;;;11.29;100.00;100586.13;5091145;28;20142;-76
2023/04/22 08:07:26;;;;;;;20.40;16.15;;;;;;;11.32;100.00;100567.78;5109923;28;20485;-77
2023/04/22 08:09:51;;;;;;;18.58;15.77;;;;;;;11.49;100.00;100574.16;5112170;28;20069;-76
2023/04/22 08:12:17;;;;;;;20.65;15.18;;;;;;;11.76;100.00;100566.34;5112773;28;20095;-76
2023/04/22 08:14:42;;;;;;;19.83;15.25;;;;;;;12.10;100.00;100576.56;5106154;28;20027;-76
2023/04/22 08:17:07;;;;;;;16.17;14.00;;;;;;;12.46;100.00;100572.72;5098805;28;20024;-76
2023/04/22 08:19:33;;;;;;;20.50;15.90;;;;;;;12.80;100.00;100562.75;5109676;28;20027;-76
2023/04/22 08:21:58;;;;;;;19.10;13.65;;;;;;;13.09;100.00;100563.41;5102711;28;20576;-76
2023/04/22 08:24:23;;;;;;;13.50;11.60;;;;;;;13.15;100.00;100551.88;5102110;28;20028;-77
2023/04/22 08:26:49;;;;;;;14.77;11.27;;;;;;;13.18;100.00;100555.22;5112497;28;20050;-76
2023/04/22 08:29:15;;;;;;;16.52;11.75;;;;;;;13.26;100.00;100561.03;5104174;28;20024;-76
2023/04/22 08:31:43;;;;;;;16.08;12.95;;;;;;;13.38;100.00;100564.09;5109408;28;20165;-76
2023/04/22 08:34:08;;;;;;;14.95;11.23;;;;;;;13.58;100.00;100556.28;5097926;28;20028;-76
2023/04/22 08:36:34;;;;;;;14.10;9.95;;;;;;;13.87;100.00;100562.97;5103091;28;20024;-76
2023/04/22 08:38:59;;;;;;;12.07;10.35;;;;;;;13.93;100.00;100540.88;5107698;28;20396;-76
2023/04/22 08:41:25;;;;;;;14.05;11.52;;;;;;;13.85;100.00;100532.50;5097927;28;20058;-76
2023/04/22 08:43:52;;;;;;;14.73;11.48;;;;;;;13.73;100.00;100534.72;5110520;28;20030;-76
2023/04/22 08:46:20;;;;;;;13.02;10.60;;;;;;;13.66;100.00;100521.91;5112633;28;20511;-76
2023/04/22 08:48:49;;;;;;;12.63;9.20;;;;;;;13.70;100.00;100524.38;5112160;28;20141;-76
2023/04/22 08:51:16;;;;;;;9.43;8.35;;;;;;;13.75;100.00;100527.63;5102760;28;20108;-76
2023/04/22 08:53:45;;;;;;;11.63;8.98;;;;;;;13.95;100.00;100523.31;5107702;28;20035;-76
2023/04/22 08:56:13;;;;;;;11.60;9.27;;;;;;;14.22;100.00;100527.41;5101134;28;20032;-76
2023/04/22 08:58:42;;;;;;;11.90;9.50;;;;;;;14.48;100.00;100522.75;5106335;28;20011;-76
2023/04/22 09:01:08;;;;;;;9.15;8.20;;;;;;;14.55;100.00;100512.84;5102932;28;20035;-76
2023/04/22 09:03:36;;;;;;;10.80;8.85;;;;;;;14.84;100.00;100525.50;5100420;28;20064;-76
2023/04/22 09:06:05;;;;;;;10.55;8.68;;;;;;;15.11;100.00;100526.00;5106135;28;20404;-76
2023/04/22 09:08:31;;;;;;;11.02;8.82;;;;;;;15.21;100.00;100516.75;5104043;28;20024;-75
2023/04/22 09:10:57;;;;;;;9.10;8.20;;;;;;;15.16;100.00;100523.16;5101267;28;20103;-76
2023/04/22 09:13:24;;;;;;;9.52;7.60;;;;;;;15.06;100.00;100522.72;5106163;27;20376;-76
2023/04/22 09:15:50;;;;;;;10.07;9.05;;;;;;;15.06;100.00;100522.72;5102984;28;20036;-76
2023/04/22 09:18:18;;;;;;;12.18;9.13;;;;;;;15.08;100.00;100520.91;5109590;28;20077;-75
2023/04/22 09:20:45;;;;;;;11.35;9.15;;;;;;;14.96;100.00;100519.69;5109925;28;20031;-76
2023/04/22 09:23:11;;;;;;;11.80;8.82;;;;;;;15.01;100.00;100522.13;5115718;28;20061;-76
2023/04/22 09:25:37;;;;;;;9.82;8.82;;;;;;;15.19;100.00;100520.38;5114007;28;20038;-76
2023/04/22 09:28:02;;;;;;;10.68;8.73;;;;;;;15.32;100.00;100504.88;5115681;28;20028;-76
2023/04/22 09:30:32;;;;;;;10.85;9.25;;;;;;;15.30;100.00;100504.09;5108787;28;20034;-75
2023/04/22 09:33:00;;;;;;;9.77;8.75;;;;;;;15.31;100.00;100500.56;5110027;28;20122;-76
2023/04/22 09:35:30;;;;;;;13.43;8.82;;;;;;;15.47;100.00;100498.91;5096219;28;20077;-75
2023/04/22 09:37:58;;;;;;;11.02;8.70;;;;;;;15.58;100.00;100503.63;5107437;28;20064;-76
2023/04/22 09:40:25;;;;;;;11.93;8.45;;;;;;;15.58;100.00;100495.72;5114727;27;20558;-76
2023/04/22 09:42:52;;;;;;;10.90;9.05;;;;;;;15.81;100.00;100497.25;5113698;28;20031;-76
2023/04/22 09:45:37;;;;;;;9.57;8.25;;;;;;;16.01;100.00;100506.75;5115601;28;20144;-76
2023/04/22 09:48:10;;;;;;;8.82;7.60;;;;;;;16.00;96.44;100520.81;5114938;27;20051;-76
2023/04/22 09:50:37;;;;;;;9.20;7.60;;;;;;;15.98;93.99;100522.66;5109507;28;20662;-75
2023/04/22 09:53:08;;;;;;;9.63;8.18;;;;;;;16.00;92.63;100523.44;5099951;28;20400;-75
2023/04/22 09:55:40;;;;;;;11.40;8.10;;;;;;;16.14;96.58;100510.44;5101623;28;20055;-75
2023/04/22 09:58:08;;;;;;;10.10;8.15;;;;;;;16.33;93.98;100513.81;5099167;28;20413;-74
2023/04/22 10:00:38;;;;;;;10.57;7.97;;;;;;;16.54;98.05;100501.28;5109136;28;20023;-75
2023/04/22 10:03:05;;;;;;;8.90;8.00;;;;;;;16.81;93.29;100513.94;5092722;28;20024;-75
2023/04/22 10:05:32;;;;;;;11.20;8.80;;;;;;;17.00;90.81;100500.59;5102461;28;20409;-75
2023/04/22 10:07:57;;;;;;;9.75;8.20;;;;;;;17.15;90.06;100505.00;5114190;28;20023;-75
2023/04/22 10:10:23;;;;;;;9.65;8.63;;;;;;;17.22;92.16;100501.09;5107304;28;20032;-75
2023/04/22 10:12:49;;;;;;;11.98;9.13;;;;;;;17.33;88.19;100518.94;5113263;28;20064;-75
2023/04/22 10:15:14;;;;;;;11.20;7.97;;;;;;;17.43;84.44;100509.56;5112574;28;20210;-75
2023/04/22 10:17:41;;;;;;;9.98;7.55;;;;;;;17.47;86.71;100513.72;5108159;28;20424;-75
2023/04/22 10:20:12;;;;;;;9.05;7.72;;;;;;;17.42;82.04;100518.41;5099678;28;20027;-75
2023/04/22 10:22:40;;;;;;;11.73;7.97;;;;;;;17.42;83.04;100518.41;5101963;28;20031;-75
2023/04/22 10:25:10;;;;;;;8.10;6.88;;;;;;;17.75;81.03;100507.69;5112844;28;20008;-75
2023/04/22 10:27:38;;;;;;;7.38;6.60;;;;;;;17.95;76.32;100509.22;5109408;28;20076;-75
2023/04/22 10:30:03;;;;;;;7.57;6.22;;;;;;;18.31;76.89;100512.34;5113955;28;20386;-75
2023/04/22 10:32:29;;;;;;;8.68;6.88;;;;;;;18.59;82.56;100506.22;5113206;28;20031;-75
2023/04/22 10:35:10;;;;;;;8.43;6.20;;;;;;;18.89;78.45;100498.19;5097355;28;20059;-75
2023/04/22 10:37:37;;;;;;;7.22;5.07;;;;;;;18.82;75.06;100503.00;5113731;28;20386;-76
2023/04/22 10:40:15;;;;;;;5.95;4.93;;;;;;;18.64;71.75;100483.03;5098278;28;20111;-75
2023/04/22 10:42:45;;;;;;;6.38;5.30;;;;;;;18.36;73.72;100486.53;5113992;28;20019;-75
2023/04/22 10:45:14;;;;;;;6.22;5.63;;;;;;;17.79;73.29;100503.13;5097043;28;20021;-75
2023/04/22 10:47:42;;;;;;;5.63;5.10;;;;;;;17.27;77.22;100506.97;5093517;28;20031;-76
2023/04/22 10:50:11;;;;;;;7.43;6.32;;;;;;;16.79;77.91;100507.91;5096943;28;20060;-75
2023/04/22 10:52:36;;;;;;;6.63;5.88;;;;;;;16.42;81.79;100501.13;5109171;28;20603;-75
2023/04/22 10:55:02;;;;;;;6.50;5.25;;;;;;;16.21;81.37;100510.97;5114775;28;20040;-76
2023/04/22 10:57:37;;;;;;;11.32;6.07;;;;;;;15.96;84.84;100520.13;5111677;28;20012;-76
2023/04/22 11:00:23;;;;;;;6.90;5.55;;;;;;;15.72;89.64;100529.22;5112252;28;20035;-75
2023/04/22 11:02:53;;;;;;;6.95;5.43;;;;;;;15.45;90.22;100521.75;5102279;28;20036;-75
2023/04/22 11:05:21;;;;;;;8.25;6.13;;;;;;;15.25;89.73;100521.88;5091562;28;20112;-76
2023/04/22 11:07:48;;;;;;;7.20;6.47;;;;;;;14.91;100.00;100533.94;5098072;28;20045;-76